Accueil
METAR-TAF:

METAR-TAF

Aéroports :

Aéroport Le Mans-Arnage

Le Mans, France

latitude: 47-56N, longitude: 000-12E, altitude: 59 m

Observation

Le bulletin a été fait il y a 21 minutes, à 08:00 UTC
Vent 4 kt de sud/sud-est, variant entre est/sud-est et sud
Température 15°C
Humidité 82%
Pression 1009 hPa
Visibilité 10 km ou plus
Ciel couvert à une hauteur de 1400 ft

METAR: LFRM 150800Z AUTO 15004KT 110V180 9999 OVC014 15/12 Q1009 BECMG BKN015

Heure: 10:21 (08:21 UTC)

Prévision

Le bulletin a été fait il y a 3 heures et 21 minutes, à 05:00 UTC
Prévision valable du 15 à 06 UTC au 16 à 06 UTC
Vent 5 kt de sud
Visibilité 10 km ou plus
Nuages fragmentés à une hauteur de 1500 ft
Probabilité 30% :
Temporairement
du 15 à 06 UTC au 15 à 08 UTC
Nuages fragmentés à une hauteur de 800 ft

TAF: LFRM 150500Z 1506/1606 18005KT 9999 BKN015 PROB30 TEMPO 1506/1508 BKN008

Observations et prévisions météorologiques de plus de 4000 aéroports (messages METAR et TAF).

Les stations disponibles sont représentées par des disques jaunes et rouges sur la carte.

Passer la souris dessus pour voir le nom de la station.

Cliquer dessus pour voir les observations et prévisions météorologiques.

Pour changer de carte: cliquez sur les boutons verts avec une croix noire pour zoomer, sur le bouton vert avec un tiret pour effectuer un zoom arrière, ou sur les flèches vertes pour les cartes adjacentes.


METAR-TAF: